Athens, Ohio
Current Conditions -  °F | °C
As of 10:55 AM on Thursday 23 Oct 2014 (Local Time) from KUNI Reporting Station
Clear Clear  
Wind Chill: 50°   Ceiling: Unl
Heat Index: 50°   Visibility: 10mi
Dew Point: 42°   Wind: 3mph
Humidity: 76%   Direction: 40°NE
Pressure: 30.24"   Gusts: NA
Location:  39.33°N, 82.1°W
Report Text: KUNI 231455Z AUTO 04003KT 10SM CLR 10/06 A3024 RMK AO2 T00990058
Loading
Personal Weather Stations






























Interactive Weather Map
Tropical Storm Tracking
New forecast layout! Learn more

10-Day Weather Forecast

Advertisements
Track Severe Weather on mobile